Flight Track Log - Related Links

Times and Time Zones

All times are in EDT time to prevent confusion due to time zone crossing. See the AFR65 flight status page for this flight to view local times or setup timezone preferences in your user account.

Time Position Orientation Groundspeed Altitude Reporting Facility
EDT Latitude Longitude Course Direction KTS MPH feet Rate Location/Type
Mon 07:07:28 PM 33.9500 -118.4500 248° West 152 175 800  Level Southern California TRACON
Mon 07:08:28 PM 33.9333 -118.5000 248° West 171 197 2,000 1,100 Climbing Southern California TRACON
Mon 07:09:28 PM 33.9333 -118.5667 270° West 255 293 3,000 1,850 Climbing Southern California TRACON
Mon 07:10:28 PM 33.9000 -118.6500 244° Southwest 276 318 5,700 2,344 Climbing Southern California TRACON
Mon 07:11:36 PM 33.8283 -118.6225 162° South 293 337 8,000 2,215 Climbing Los Angeles Center
Mon 07:12:38 PM 33.8597 -118.5261 69° East 288 331 10,500 1,412 Climbing Los Angeles Center
Mon 07:13:52 PM 33.9169 -118.4536 46° Northeast 329 379 11,200 1,095 Climbing Los Angeles Center
Mon 07:14:55 PM 33.9958 -118.3236 54° Northeast 394 453 13,000 2,016 Climbing Los Angeles Center
Mon 07:15:57 PM 34.0753 -118.1828 56° Northeast 417 480 15,400 2,129 Climbing Los Angeles Center
Mon 07:16:59 PM 34.1444 -118.0597 56° Northeast 438 504 17,400 1,839 Climbing Los Angeles Center
Mon 07:18:01 PM 34.2147 -117.9353 56° Northeast 447 514 19,200 1,694 Climbing Los Angeles Center
Mon 07:19:03 PM 34.2947 -117.8136 51° Northeast 461 531 20,900 1,645 Climbing Los Angeles Center
Mon 07:20:05 PM 34.3786 -117.6917 50° Northeast 471 542 22,600 1,645 Climbing Los Angeles Center
Mon 07:21:07 PM 34.4664 -117.5639 50° Northeast 477 549 24,300 1,452 Climbing Los Angeles Center
Mon 07:22:09 PM 34.5536 -117.4378 50° Northeast 489 563 25,600 1,403 Climbing Los Angeles Center
Mon 07:23:11 PM 34.6600 -117.2831 50° Northeast 501 577 27,200 1,440 Climbing Los Angeles Center
Mon 07:24:14 PM 34.7492 -117.1519 50° Northeast 506 582 28,600 1,536 Climbing Los Angeles Center
Mon 07:25:16 PM 34.8375 -117.0222 50° Northeast 506 582 30,400 1,463 Climbing Los Angeles Center
Mon 07:26:17 PM 34.9069 -116.9203 50° Northeast 502 578 31,600 1,355 Climbing Los Angeles Center
Mon 07:27:20 PM 35.0106 -116.7689 50° Northeast 494 568 33,200 1,440 Climbing Los Angeles Center
Mon 07:28:22 PM 35.1133 -116.6172 50° Northeast 489 563 34,600 1,210 Climbing Los Angeles Center
Mon 07:29:24 PM 35.1961 -116.4925 51° Northeast 481 554 35,700 823 Climbing Los Angeles Center
Mon 07:30:26 PM 35.2806 -116.3689 50° Northeast 475 547 36,300 532 Climbing Los Angeles Center
Mon 07:31:28 PM 35.3650 -116.2442 50° Northeast 476 548 36,800 339 Climbing Los Angeles Center
Mon 07:32:30 PM 35.4483 -116.1156 51° Northeast 482 555 37,000 97 Climbing Los Angeles Center
Mon 07:33:32 PM 35.5539 -115.9614 50° Northeast 491 565 37,000  Level Los Angeles Center
Mon 07:34:35 PM 35.6308 -115.8439 51° Northeast 487 560 37,000  Level Los Angeles Center
Mon 07:35:37 PM 35.7328 -115.6892 51° Northeast 488 562 37,000  Level Los Angeles Center
Mon 07:36:39 PM 35.8181 -115.5589 51° Northeast 489 563 37,000  Level Los Angeles Center
Mon 07:37:41 PM 35.9033 -115.4292 51° Northeast 489 563 37,000  Level Los Angeles Center
Mon 07:38:43 PM 35.9889 -115.2989 51° Northeast 491 565 37,000  Level Los Angeles Center
Mon 07:39:45 PM 36.0722 -115.1692 51° Northeast 487 560 37,000  Level Los Angeles Center
Mon 07:40:47 PM 36.1853 -115.0261 46° Northeast 490 564 37,000  Level Los Angeles Center
Mon 07:41:49 PM 36.2797 -114.9044 46° Northeast 493 567 37,000  Level Los Angeles Center
Mon 07:42:51 PM 36.3739 -114.7836 46° Northeast 491 565 37,000  Level Los Angeles Center
Mon 07:43:53 PM 36.4489 -114.6864 46° Northeast 490 564 37,000  Level Los Angeles Center
Mon 07:44:55 PM 36.5619 -114.5372 47° Northeast 494 568 37,000  Level Los Angeles Center
Mon 07:45:58 PM 36.6553 -114.4139 47° Northeast 492 566 37,000  Level Los Angeles Center
Mon 07:47:00 PM 36.7708 -114.2703 45° Northeast 491 565 37,000  Level Los Angeles Center
Mon 07:48:02 PM 36.8847 -114.1806 32° Northeast 484 557 37,000  Level Los Angeles Center
Mon 07:49:04 PM 36.9997 -114.0922 32° Northeast 485 558 37,000  Level Los Angeles Center
Mon 07:50:06 PM 37.1172 -114.0089 29° Northeast 486 559 37,000  Level Los Angeles Center
Mon 07:51:08 PM 37.2444 -113.9506 20° North 484 557 37,000  Level Los Angeles Center
Mon 07:52:10 PM 37.3767 -113.8808 23° Northeast 486 559 37,000  Level Los Angeles Center
Mon 07:53:12 PM 37.5039 -113.8139 23° Northeast 490 564 37,000  Level Los Angeles Center
Mon 07:54:14 PM 37.6561 -113.7336 23° Northeast 492 566 37,000  Level Los Angeles Center
Mon 07:55:28 PM 37.7833 -113.6653 23° Northeast 493 567 37,000  Level Los Angeles Center
Mon 07:56:08 PM 37.8850 -113.6128 22° Northeast 492 566 37,000  Level Salt Lake Center
Mon 07:57:09 PM 37.9928 -113.5033 39° Northeast 500 575 37,000  Level Salt Lake Center
Mon 07:58:11 PM 38.0908 -113.3750 46° Northeast 503 579 37,000  Level Salt Lake Center
Mon 07:59:13 PM 38.1897 -113.2433 46° Northeast 509 586 37,000  Level Salt Lake Center
Mon 08:00:15 PM 38.2869 -113.1133 46° Northeast 507 583 37,000  Level Salt Lake Center
Mon 08:01:16 PM 38.3858 -112.9836 46° Northeast 508 585 37,000  Level Salt Lake Center
Mon 08:02:18 PM 38.5114 -112.8414 42° Northeast 503 579 37,000  Level Salt Lake Center
Mon 08:03:19 PM 38.6144 -112.7189 43° Northeast 505 581 37,000  Level Salt Lake Center
Mon 08:04:21 PM 38.7178 -112.5975 42° Northeast 504 580 37,000  Level Salt Lake Center
Mon 08:05:22 PM 38.8222 -112.4767 42° Northeast 505 581 37,000  Level Salt Lake Center
Mon 08:06:24 PM 38.9261 -112.3539 43° Northeast 507 583 37,000  Level Salt Lake Center
Mon 08:07:26 PM 39.0294 -112.2306 43° Northeast 506 582 37,000  Level Salt Lake Center
Mon 08:08:27 PM 39.1325 -112.1069 43° Northeast 507 583 37,000  Level Salt Lake Center
Mon 08:09:29 PM 39.2458 -111.9725 43° Northeast 506 582 37,000  Level Salt Lake Center
Mon 08:10:30 PM 39.3492 -111.8503 42° Northeast 505 581 37,000  Level Salt Lake Center
Mon 08:11:32 PM 39.4500 -111.7256 44° Northeast 505 581 37,000  Level Salt Lake Center
Mon 08:12:33 PM 39.5525 -111.6028 43° Northeast 504 580 37,000  Level Salt Lake Center
Mon 08:13:35 PM 39.6533 -111.4803 43° Northeast 500 575 37,000  Level Salt Lake Center
Mon 08:14:36 PM 39.7739 -111.3336 43° Northeast 497 572 37,000  Level Salt Lake Center
Mon 08:15:38 PM 39.8764 -111.2061 44° Northeast 507 583 37,000  Level Salt Lake Center
Mon 08:16:39 PM 39.9739 -111.0842 44° Northeast 508 585 37,000  Level Salt Lake Center
Mon 08:17:41 PM 40.0806 -110.9556 43° Northeast 508 585 37,000  Level Salt Lake Center
Mon 08:18:42 PM 40.1864 -110.8225 44° Northeast 503 579 37,000  Level Salt Lake Center
Mon 08:19:43 PM 40.2836 -110.7017 43° Northeast 503 579 37,000  Level Salt Lake Center
Mon 08:20:45 PM 40.3947 -110.5600 44° Northeast 500 575 37,000  Level Salt Lake Center
Mon 08:21:46 PM 40.4906 -110.4392 44° Northeast 499 574 37,000  Level Salt Lake Center
Mon 08:22:48 PM 40.6036 -110.2983 43° Northeast 499 574 37,000  Level Salt Lake Center
Mon 08:23:49 PM 40.6997 -110.1753 44° Northeast 500 575 37,000  Level Salt Lake Center
Mon 08:24:51 PM 40.7958 -110.0511 44° Northeast 502 578 37,000  Level Salt Lake Center
Mon 08:25:52 PM 40.9067 -109.9089 44° Northeast 505 581 37,000  Level Salt Lake Center
Mon 08:27:36 PM 41.0833 -109.6800 44° Northeast 503 579 37,000  Level Denver Center
Mon 08:27:55 PM 41.1144 -109.6383 45° Northeast 503 579 37,000  Level Salt Lake Center
Mon 08:28:57 PM 41.2108 -109.5144 44° Northeast 504 580 37,000  Level Salt Lake Center
Mon 08:29:58 PM 41.3064 -109.3897 44° Northeast 504 580 37,000  Level Salt Lake Center
Mon 08:31:00 PM 41.4183 -109.2428 45° Northeast 501 577 37,000  Level Salt Lake Center
Mon 08:32:01 PM 41.5214 -109.1089 44° Northeast 519 597 37,000  Level Salt Lake Center
Mon 08:33:03 PM 41.6128 -108.9789 47° Northeast 499 574 37,000  Level Salt Lake Center
Mon 08:34:04 PM 41.7058 -108.8122 53° Northeast 500 575 37,000  Level Salt Lake Center
Mon 08:35:06 PM 41.7881 -108.6703 52° Northeast 502 578 37,000  Level Salt Lake Center
Mon 08:36:08 PM 41.8681 -108.5267 53° Northeast 503 579 37,000  Level Salt Lake Center
Mon 08:37:09 PM 41.9636 -108.3603 52° Northeast 504 580 37,000  Level Salt Lake Center
Mon 08:38:11 PM 42.0453 -108.2178 52° Northeast 504 580 37,000  Level Salt Lake Center
Mon 08:39:12 PM 42.1356 -108.0472 54° Northeast 502 578 37,000  Level Salt Lake Center
Mon 08:40:14 PM 42.2167 -107.9014 53° Northeast 508 585 37,000  Level Salt Lake Center
Mon 08:41:15 PM 42.3100 -107.7336 53° Northeast 503 579 37,000  Level Salt Lake Center
Mon 08:42:17 PM 42.3892 -107.5872 54° Northeast 505 581 37,000  Level Salt Lake Center
Mon 08:43:01 PM 42.4567 -107.4636 53° Northeast 508 585 37,000  Level Denver Center
Mon 08:44:20 PM 42.5642 -107.2669 53° Northeast 513 590 37,000  Level Salt Lake Center
Mon 08:45:22 PM 42.6444 -107.1181 54° Northeast 513 590 37,000  Level Salt Lake Center
Mon 08:46:06 PM 42.7056 -107.0028 54° Northeast 511 588 37,000  Level Denver Center
Mon 08:47:08 PM 42.8000 -106.8267 54° Northeast 516 594 37,000  Level Denver Center
Mon 08:48:09 PM 42.8814 -106.6744 54° Northeast 518 596 37,000  Level Denver Center
Mon 08:49:11 PM 42.9769 -106.4944 54° Northeast 524 603 37,000  Level Denver Center
Mon 08:50:12 PM 43.0578 -106.3394 54° Northeast 524 603 37,000  Level Denver Center
Mon 08:51:14 PM 43.1381 -106.1822 55° Northeast 524 603 37,000  Level Denver Center
Mon 08:52:16 PM 43.2225 -105.9939 58° Northeast 520 598 37,000  Level Denver Center
Mon 08:53:17 PM 43.2978 -105.8347 57° Northeast 518 596 37,000  Level Denver Center
Mon 08:54:19 PM 43.3836 -105.6475 58° Northeast 518 596 37,000  Level Denver Center
Mon 08:55:20 PM 43.4575 -105.4892 57° Northeast 513 590 37,000  Level Denver Center
Mon 08:56:22 PM 43.5447 -105.3447 50° Northeast 513 590 37,000  Level Denver Center
Mon 08:57:24 PM 43.6517 -105.1867 47° Northeast 505 581 37,000  Level Denver Center
Mon 08:58:25 PM 43.7428 -105.0481 48° Northeast 507 583 37,000  Level Denver Center
Mon 08:59:27 PM 43.8714 -104.9247 35° Northeast 503 579 37,000  Level Denver Center
Mon 09:00:28 PM 43.9878 -104.8281 31° Northeast 507 583 37,000  Level Denver Center
Mon 09:01:30 PM 44.1083 -104.7328 30° Northeast 517 595 37,000  Level Denver Center
Mon 09:02:44 PM 44.2739 -104.6064 29° Northeast 529 609 37,000  Level Denver Center
Mon 09:03:46 PM 44.4192 -104.4964 28° Northeast 531 611 37,000  Level Denver Center
Mon 09:04:47 PM 44.5444 -104.4003 29° Northeast 533 613 37,000  Level Denver Center
Mon 09:05:49 PM 44.6719 -104.3058 28° Northeast 539 620 37,000  Level Denver Center
Mon 09:06:50 PM 44.8197 -104.1897 29° Northeast 544 626 37,000  Level Denver Center
Mon 09:07:52 PM 44.9461 -104.0869 30° Northeast 547 629 37,000  Level Denver Center
Mon 09:08:54 PM 45.0822 -103.9422 37° Northeast 543 625 37,000  Level Salt Lake Center
Mon 09:10:08 PM 45.2211 -103.7958 37° Northeast 531 611 37,000  Level Salt Lake Center
Mon 09:11:09 PM 45.3419 -103.6814 34° Northeast 526 605 37,000  Level Salt Lake Center
Mon 09:12:10 PM 45.4650 -103.5675 33° Northeast 527 606 37,000  Level Salt Lake Center
Mon 09:13:11 PM 45.5892 -103.4539 33° Northeast 532 612 37,000  Level Salt Lake Center
Mon 09:14:13 PM 45.7119 -103.3375 33° Northeast 533 613 37,000  Level Salt Lake Center
Mon 09:15:18 PM 45.8603 -103.2061 32° Northeast 523 602 37,000  Level Minneapolis Center
Mon 09:16:19 PM 45.9833 -103.0950 32° Northeast 523 602 37,000  Level Minneapolis Center
Mon 09:17:21 PM 46.0958 -102.9669 38° Northeast 515 593 37,000  Level Minneapolis Center
Mon 09:18:23 PM 46.2014 -102.8297 42° Northeast 515 593 37,000  Level Minneapolis Center
Mon 09:19:25 PM 46.3078 -102.6897 42° Northeast 522 601 37,000  Level Minneapolis Center
Mon 09:20:26 PM 46.4147 -102.5472 43° Northeast 524 603 37,000  Level Minneapolis Center
Mon 09:21:28 PM 46.5317 -102.3647 47° Northeast 514 592 37,000  Level Minneapolis Center
Mon 09:22:30 PM 46.6272 -102.2122 48° Northeast 514 592 37,000  Level Minneapolis Center
Mon 09:23:31 PM 46.7200 -102.0553 49° Northeast 513 590 37,000  Level Minneapolis Center
Mon 09:24:33 PM 46.8058 -101.8906 53° Northeast 514 592 37,000  Level Minneapolis Center
Mon 09:25:34 PM 46.8961 -101.6917 56° Northeast 511 588 37,000  Level Minneapolis Center
Mon 09:26:36 PM 46.9681 -101.5111 60° Northeast 512 589 37,000  Level Minneapolis Center
Mon 09:27:38 PM 47.0389 -101.3722 53° Northeast 517 595 37,000  Level Minneapolis Center
Mon 09:28:39 PM 47.1431 -101.1628 54° Northeast 518 596 37,000  Level Minneapolis Center
Mon 09:29:41 PM 47.2247 -100.9975 54° Northeast 519 597 37,000  Level Minneapolis Center
Mon 09:30:42 PM 47.3069 -100.8306 54° Northeast 520 598 37,000  Level Minneapolis Center
Mon 09:31:44 PM 47.3917 -100.6572 54° Northeast 521 600 37,000  Level Minneapolis Center
Mon 09:32:46 PM 47.4764 -100.4831 54° Northeast 524 603 37,000  Level Minneapolis Center
Mon 09:33:47 PM 47.5608 -100.3075 54° Northeast 525 604 37,000  Level Minneapolis Center
Mon 09:34:49 PM 47.6458 -100.1306 54° Northeast 526 605 37,000  Level Minneapolis Center
Mon 09:35:50 PM 47.7461 -99.9200 55° Northeast 520 598 37,000  Level Minneapolis Center
Mon 09:36:52 PM 47.8292 -99.7444 55° Northeast 519 597 37,000  Level Minneapolis Center
Mon 09:37:53 PM 47.9119 -99.5681 55° Northeast 520 598 37,000  Level Minneapolis Center
Mon 09:38:54 PM 47.9783 -99.4264 55° Northeast 520 598 37,000  Level Minneapolis Center
Mon 09:39:56 PM 48.0775 -99.2125 55° Northeast 523 602 37,000  Level Minneapolis Center
Mon 09:40:58 PM 48.1611 -99.0311 55° Northeast 529 609 37,000  Level Minneapolis Center
Mon 09:41:59 PM 48.2447 -98.8481 56° Northeast 531 611 37,000  Level Minneapolis Center
Mon 09:43:55 PM 48.4000 -98.4833 57° Northeast 530 610 37,000  Level Winnipeg Center
Mon 09:45:03 PM 48.5089 -98.2631 53° Northeast 524 603 37,000  Level Minneapolis Center
Mon 09:46:05 PM 48.5922 -98.0758 56° Northeast 518 596 37,000  Level Minneapolis Center
Mon 09:47:06 PM 48.6694 -97.9008 56° Northeast 516 594 37,000  Level Minneapolis Center
Mon 09:48:19 PM 48.7492 -97.7197 56° Northeast 516 594 37,000  Level Minneapolis Center
Mon 09:49:21 PM 48.8464 -97.4964 56° Northeast 518 596 37,000  Level Minneapolis Center
Mon 09:50:22 PM 48.9231 -97.3192 57° Northeast 518 596 37,000  Level Minneapolis Center
Mon 09:51:23 PM 49.0017 -97.1358 57° Northeast 519 597 37,000  Level Minneapolis Center
Mon 09:51:55 PM 49.0333 -97.0167 68° East 520 598 37,000  Level Winnipeg Center
Mon 09:52:55 PM 49.1167 -96.8167 57° Northeast 520 598 37,000  Level Winnipeg Center
Mon 09:53:55 PM 49.2000 -96.6333 55° Northeast 520 598 37,000  Level Winnipeg Center
Mon 09:54:55 PM 49.2667 -96.4500 61° Northeast 510 587 37,000  Level Winnipeg Center
Mon 09:55:55 PM 49.3500 -96.2667 55° Northeast 500 575 37,000  Level Winnipeg Center
Mon 09:56:55 PM 49.4167 -96.1000 58° Northeast 500 575 37,000  Level Winnipeg Center
Mon 09:57:55 PM 49.4833 -95.9167 61° Northeast 500 575 37,000  Level Winnipeg Center
Mon 09:58:55 PM 49.5667 -95.7333 55° Northeast 500 575 37,000  Level Winnipeg Center
Mon 09:59:55 PM 49.6333 -95.5500 61° Northeast 500 575 37,000  Level Winnipeg Center
Mon 10:00:55 PM 49.7167 -95.3667 55° Northeast 500 575 37,000  Level Winnipeg Center
Mon 10:01:55 PM 49.7833 -95.2000 58° Northeast 500 575 37,000  Level Winnipeg Center
Mon 10:02:55 PM 49.8667 -95.0000 57° Northeast 500 575 37,000  Level Winnipeg Center
Mon 10:03:55 PM 49.9333 -94.8333 58° Northeast 500 575 37,000  Level Winnipeg Center
Mon 10:04:55 PM 50.0000 -94.6167 64° Northeast 500 575 37,000  Level Winnipeg Center
Mon 10:05:55 PM 50.0667 -94.4667 55° Northeast 500 575 37,000  Level Winnipeg Center
Mon 10:06:55 PM 50.1500 -94.2833 55° Northeast 510 587 37,000  Level Winnipeg Center
Mon 10:07:55 PM 50.2167 -94.0667 64° Northeast 510 587 37,000  Level Winnipeg Center
Mon 10:08:55 PM 50.2833 -93.9000 58° Northeast 510 587 37,000  Level Winnipeg Center
Mon 10:09:55 PM 50.3667 -93.6833 59° Northeast 500 575 37,000  Level Winnipeg Center
Mon 10:10:55 PM 50.4333 -93.5000 60° Northeast 500 575 37,000  Level Winnipeg Center
Mon 10:11:55 PM 50.5000 -93.3000 62° Northeast 500 575 37,000  Level Winnipeg Center
Mon 10:12:55 PM 50.5667 -93.1167 60° Northeast 500 575 37,000  Level Winnipeg Center
Mon 10:13:55 PM 50.6500 -92.9333 54° Northeast 510 587 37,000  Level Winnipeg Center
Mon 10:14:55 PM 50.7000 -92.7333 68° East 510 587 37,000  Level Winnipeg Center
Mon 10:15:55 PM 50.7833 -92.5500 54° Northeast 500 575 37,000  Level Winnipeg Center
Mon 10:16:55 PM 50.8500 -92.3500 62° Northeast 510 587 37,000  Level Winnipeg Center
Mon 10:17:55 PM 50.9167 -92.1500 62° Northeast 510 587 37,000  Level Winnipeg Center
Mon 10:18:55 PM 50.9833 -91.9667 60° Northeast 510 587 37,000  Level Winnipeg Center
Mon 10:19:55 PM 51.0500 -91.7667 62° Northeast 510 587 37,000  Level Winnipeg Center
Mon 10:20:55 PM 51.1167 -91.5667 62° Northeast 510 587 37,000  Level Winnipeg Center
Mon 10:21:55 PM 51.2000 -91.3500 58° Northeast 510 587 37,000  Level Winnipeg Center
Mon 10:22:55 PM 51.2500 -91.1500 68° East 510 587 37,000  Level Winnipeg Center
Mon 10:23:55 PM 51.3333 -90.9667 54° Northeast 510 587 37,000  Level Winnipeg Center
Mon 10:24:55 PM 51.4000 -90.7667 62° Northeast 510 587 37,000  Level Winnipeg Center
Mon 10:25:55 PM 51.4667 -90.5667 62° Northeast 510 587 37,000  Level Winnipeg Center
Mon 10:26:55 PM 51.5333 -90.3667 62° Northeast 510 587 37,000  Level Winnipeg Center
Mon 10:27:55 PM 51.5833 -90.1667 68° East 500 575 37,000  Level Winnipeg Center
Mon 10:28:55 PM 51.6667 -89.9667 56° Northeast 510 587 37,000  Level Winnipeg Center
Mon 10:29:55 PM 51.7500 -89.7667 56° Northeast 500 575 37,000  Level Winnipeg Center
Mon 10:30:55 PM 51.8167 -89.6167 54° Northeast 500 575 37,000  Level Winnipeg Center
Mon 10:31:55 PM 51.9167 -89.4167 51° Northeast 500 575 37,000  Level Winnipeg Center
Mon 10:32:55 PM 52.0000 -89.2333 54° Northeast 500 575 37,000  Level Winnipeg Center
Mon 10:33:55 PM 52.0833 -89.0833 48° Northeast 500 575 37,000  Level Winnipeg Center
Mon 10:34:55 PM 52.1667 -88.8667 58° Northeast 500 575 37,000  Level Winnipeg Center
Mon 10:35:55 PM 52.2500 -88.7167 48° Northeast 500 575 37,000  Level Winnipeg Center
Mon 10:36:55 PM 52.3333 -88.5167 56° Northeast 500 575 37,000  Level Winnipeg Center
Mon 10:37:55 PM 52.4333 -88.3500 45° Northeast 500 575 37,000  Level Winnipeg Center
Mon 10:38:55 PM 52.5167 -88.1500 56° Northeast 500 575 37,000  Level Winnipeg Center
Mon 10:39:55 PM 52.5833 -87.9667 59° Northeast 510 587 37,000  Level Winnipeg Center
Mon 10:40:55 PM 52.6667 -87.7833 53° Northeast 500 575 37,000  Level Winnipeg Center
Mon 10:41:55 PM 52.7500 -87.6000 53° Northeast 500 575 37,000  Level Winnipeg Center
Mon 10:42:55 PM 52.8333 -87.4167 53° Northeast 500 575 37,000  Level Winnipeg Center
Mon 10:43:55 PM 52.9167 -87.2333 53° Northeast 500 575 37,000  Level Winnipeg Center
Mon 10:44:55 PM 53.0000 -87.0333 55° Northeast 500 575 37,000  Level Winnipeg Center
Mon 10:45:55 PM 53.0833 -86.8500 53° Northeast 500 575 37,000  Level Winnipeg Center
Mon 10:46:55 PM 53.1667 -86.6667 53° Northeast 500 575 37,000  Level Winnipeg Center
Mon 10:47:55 PM 53.2333 -86.4833 59° Northeast 500 575 37,000  Level Winnipeg Center
Mon 10:48:55 PM 53.3167 -86.2833 55° Northeast 500 575 37,000  Level Winnipeg Center
Mon 10:49:55 PM 53.4000 -86.1000 53° Northeast 500 575 37,000  Level Winnipeg Center
Mon 10:50:55 PM 53.4833 -85.9000 55° Northeast 500 575 37,000  Level Winnipeg Center
Mon 10:51:55 PM 53.5667 -85.7167 53° Northeast 500 575 37,000  Level Winnipeg Center
Mon 10:52:55 PM 53.6333 -85.5167 61° Northeast 500 575 37,000  Level Winnipeg Center
Mon 10:53:55 PM 53.7167 -85.3333 52° Northeast 500 575 37,000  Level Winnipeg Center
Mon 10:54:55 PM 53.8000 -85.1333 55° Northeast 500 575 37,000  Level Winnipeg Center
Mon 10:55:55 PM 53.8833 -84.9333 55° Northeast 500 575 37,000  Level Winnipeg Center
Mon 10:56:55 PM 53.9667 -84.7333 55° Northeast 510 587 37,000  Level Winnipeg Center
Mon 10:57:55 PM 54.0500 -84.5500 52° Northeast 510 587 37,000  Level Winnipeg Center
Mon 10:59:03 PM 54.1000 -84.3000 71° East 510 587 37,000  Level Edmonton Center
Mon 11:00:03 PM 54.1833 -84.0833 57° Northeast 510 587 37,000  Level Edmonton Center
Mon 11:01:03 PM 54.2500 -83.8833 60° Northeast 510 587 37,000  Level Edmonton Center
Mon 11:02:03 PM 54.3333 -83.7000 52° Northeast 520 598 37,000  Level Edmonton Center
Mon 11:03:03 PM 54.4167 -83.4667 58° Northeast 510 587 37,000  Level Edmonton Center
Mon 11:04:03 PM 54.4833 -83.2667 60° Northeast 510 587 37,000  Level Edmonton Center
Mon 11:05:03 PM 54.5667 -83.0667 54° Northeast 510 587 37,000  Level Edmonton Center
Mon 11:06:03 PM 54.6333 -82.8500 62° Northeast 510 587 37,000  Level Edmonton Center
Mon 11:07:03 PM 54.7167 -82.6500 54° Northeast 500 575 37,000  Level Edmonton Center
Mon 11:07:55 PM 54.8000 -82.4833 49° Northeast 500 575 37,000  Level Winnipeg Center
Mon 11:08:55 PM 54.8667 -82.2833 60° Northeast 500 575 37,000  Level Winnipeg Center
Mon 11:09:55 PM 54.9500 -82.0833 54° Northeast 500 575 37,000  Level Winnipeg Center
Mon 11:10:55 PM 55.0333 -81.8667 56° Northeast 500 575 37,000  Level Winnipeg Center
Mon 11:11:55 PM 55.0833 -81.6667 66° East 500 575 37,000  Level Winnipeg Center
Mon 11:12:55 PM 55.1667 -81.4667 54° Northeast 500 575 37,000  Level Winnipeg Center
Mon 11:13:55 PM 55.2333 -81.2500 62° Northeast 500 575 37,000  Level Winnipeg Center
Mon 11:14:55 PM 55.3000 -81.0500 60° Northeast 500 575 37,000  Level Winnipeg Center
Mon 11:15:55 PM 55.3667 -80.8333 61° Northeast 490 564 37,000  Level Winnipeg Center
Mon 11:16:55 PM 55.4500 -80.6500 51° Northeast 500 575 37,000  Level Winnipeg Center
Mon 11:17:55 PM 55.5167 -80.4500 59° Northeast 500 575 37,000  Level Winnipeg Center
Mon 11:18:55 PM 55.5833 -80.2333 61° Northeast 500 575 37,000  Level Winnipeg Center
Mon 11:19:55 PM 55.6500 -80.0000 63° Northeast 500 575 37,000  Level Winnipeg Center
Mon 11:20:55 PM 55.7167 -79.7833 61° Northeast 500 575 37,000  Level Winnipeg Center
Mon 11:21:55 PM 55.8000 -79.5667 56° Northeast 500 575 37,000  Level Winnipeg Center
Mon 11:22:55 PM 55.8500 -79.3500 68° East 500 575 37,000  Level Winnipeg Center
Mon 11:23:55 PM 55.9167 -79.1333 61° Northeast 500 575 37,000  Level Winnipeg Center
Mon 11:24:55 PM 55.9833 -78.9333 59° Northeast 500 575 37,000  Level Winnipeg Center
Mon 11:25:55 PM 56.0500 -78.7167 61° Northeast 500 575 37,000  Level Winnipeg Center
Mon 11:26:55 PM 56.1000 -78.5000 67° East 500 575 37,000  Level Winnipeg Center
Mon 11:27:55 PM 56.1667 -78.2833 61° Northeast 500 575 37,000  Level Winnipeg Center
Mon 11:29:03 PM 56.2167 -78.0000 72° East 500 575 37,000  Level Edmonton Center
Mon 11:30:03 PM 56.2833 -77.7500 64° Northeast 500 575 37,000  Level Edmonton Center
Mon 11:31:03 PM 56.3500 -77.5500 59° Northeast 500 575 37,000  Level Edmonton Center
Mon 11:32:03 PM 56.4000 -77.3333 67° East 500 575 37,000  Level Edmonton Center
Mon 11:33:03 PM 56.4500 -77.1000 69° East 490 564 37,000  Level Edmonton Center
Mon 11:34:03 PM 56.5333 -76.8667 57° Northeast 490 564 37,000  Level Edmonton Center
Mon 11:35:03 PM 56.5833 -76.6667 66° East 490 564 37,000  Level Edmonton Center
Mon 11:36:03 PM 56.6333 -76.4167 70° East 500 575 37,000  Level Edmonton Center
Mon 11:37:03 PM 56.7000 -76.2000 61° Northeast 500 575 37,000  Level Edmonton Center
Mon 11:38:55 PM 56.8333 -75.8167 57° Northeast 500 575 37,000  Level Winnipeg Center
Mon 11:39:55 PM 56.8833 -75.5833 68° East 500 575 37,000  Level Winnipeg Center
Mon 11:41:00 PM 56.9495 -75.3390 64° Northeast  Level FlightAware Approximate
Mon 11:42:06 PM 57.0333 -75.2167 64° Northeast 490 564 37,000  Level Gander Center
Mon 11:43:06 PM 57.1000 -74.9833 62° Northeast 480 552 37,000  Level Gander Center
Mon 11:44:06 PM 57.1333 -74.7500 75° East 500 575 37,000  Level Gander Center
Mon 11:45:06 PM 57.2167 -74.5167 57° Northeast 480 552 37,000  Level Gander Center
Mon 11:46:06 PM 57.2667 -74.3000 67° East 490 564 37,000  Level Gander Center
Mon 11:47:06 PM 57.3167 -74.0500 70° East 490 564 37,000  Level Gander Center
Mon 11:48:06 PM 57.3667 -73.8333 67° East 500 575 37,000  Level Gander Center
Mon 11:49:06 PM 57.4167 -73.6000 68° East 500 575 37,000  Level Gander Center
Mon 11:50:06 PM 57.4833 -73.3667 62° Northeast 500 575 37,000  Level Gander Center
Mon 11:50:53 PM 57.5167 -73.1500 74° East 490 564 37,000  Level Montreal Center
Mon 11:51:53 PM 57.5833 -72.8833 65° Northeast 490 564 37,000  Level Montreal Center
Mon 11:52:53 PM 57.6333 -72.6667 67° East 490 564 37,000  Level Montreal Center
Mon 11:53:53 PM 57.6833 -72.4333 68° East 500 575 37,000  Level Montreal Center
Mon 11:54:53 PM 57.7333 -72.1833 69° East 490 564 37,000  Level Montreal Center
Mon 11:55:53 PM 57.7833 -71.9167 71° East 500 575 37,000  Level Montreal Center
Mon 11:56:53 PM 57.8333 -71.7000 66° East 490 564 37,000  Level Montreal Center
Mon 11:57:53 PM 57.8833 -71.4667 68° East 490 564 37,000  Level Montreal Center
Mon 11:58:53 PM 57.9333 -71.2000 70° East 490 564 37,000  Level Montreal Center
Mon 11:59:53 PM 57.9833 -70.9833 66° East 490 564 37,000  Level Montreal Center
Tue 12:00:53 AM 58.0333 -70.7167 70° East 490 564 37,000  Level Montreal Center
Tue 12:01:53 AM 58.0667 -70.4833 75° East 490 564 37,000  Level Montreal Center
Tue 12:02:53 AM 58.1333 -70.2333 63° Northeast 490 564 37,000  Level Montreal Center
Tue 12:03:53 AM 58.1833 -69.9667 70° East 490 564 37,000  Level Montreal Center
Tue 12:04:53 AM 58.2167 -69.7333 75° East 490 564 37,000  Level Montreal Center
Tue 12:05:53 AM 58.2667 -69.5000 68° East 500 575 37,000  Level Montreal Center
Tue 12:06:53 AM 58.3167 -69.2333 70° East 500 575 37,000  Level Montreal Center
Tue 12:07:53 AM 58.3500 -69.0000 75° East 500 575 37,000  Level Montreal Center
Tue 12:08:53 AM 58.4000 -68.7333 70° East 500 575 37,000  Level Montreal Center
Tue 12:09:53 AM 58.4333 -68.4667 76° East 500 575 37,000  Level Montreal Center
Tue 12:10:53 AM 58.5000 -68.2333 61° Northeast 500 575 37,000  Level Montreal Center
Tue 12:11:53 AM 58.5333 -67.9667 76° East 500 575 37,000  Level Montreal Center
Tue 12:12:53 AM 58.5833 -67.7167 69° East 500 575 37,000  Level Montreal Center
Tue 12:13:18 AM 58.6000 -67.6833 46° Northeast 500 575 37,000  Level Gander Center
Tue 12:13:53 AM 58.6167 -67.4500 82° East 500 575 37,000  Level Montreal Center
Tue 12:14:53 AM 58.6667 -67.2167 68° East 500 575 37,000  Level Montreal Center
Tue 12:15:18 AM 58.6667 -67.1500 90° East 500 575 37,000  Level Gander Center
Tue 12:15:53 AM 58.7000 -66.9500 72° East 500 575 37,000  Level Montreal Center
Tue 12:16:53 AM 58.7667 -66.7000 63° Northeast 500 575 37,000  Level Montreal Center
Tue 12:17:53 AM 58.8167 -66.4667 67° East 500 575 37,000  Level Montreal Center
Tue 12:18:53 AM 58.8667 -66.2167 69° East 500 575 37,000  Level Montreal Center
Tue 12:19:53 AM 58.9167 -65.9667 69° East 500 575 37,000  Level Montreal Center
Tue 12:20:18 AM 58.9333 -65.9333 46° Northeast 500 575 37,000  Level Gander Center
Tue 12:21:18 AM 59.0000 -65.6500 65° Northeast 510 587 37,000  Level Gander Center
Tue 12:22:18 AM 59.0333 -65.4000 75° East 500 575 37,000  Level Gander Center
Tue 12:23:18 AM 59.1000 -65.1333 64° Northeast 500 575 37,000  Level Gander Center
Tue 12:24:18 AM 59.1500 -64.8833 69° East 500 575 37,000 300 Level Gander Center
Tue 12:25:18 AM 59.2000 -64.6333 69° East 500 575 37,600 650 Climbing Gander Center
Tue 12:26:18 AM 59.2500 -64.3833 69° East 510 587 38,300 632 Climbing Gander Center
Tue 12:26:53 AM 59.2833 -64.1833 72° East 510 587 38,600 442 Climbing Montreal Center
Tue 12:27:53 AM 59.3167 -63.9333 75° East 510 587 39,000 200 Climbing Montreal Center
Tue 12:28:53 AM 59.3667 -63.6833 68° East 510 587 39,000  Level Montreal Center
Tue 12:29:18 AM 59.4000 -63.6000 52° Northeast 510 587 39,000  Level Gander Center
Tue 12:30:18 AM 59.4500 -63.3500 68° East 510 587 39,000  Level Gander Center
Tue 12:31:18 AM 59.4833 -63.0833 76° East 510 587 39,000  Level Gander Center
Tue 12:32:06 AM 59.5333 -62.8833 64° Northeast 510 587 39,000  Level Gander Center
Tue 12:33:06 AM 59.5833 -62.6333 68° East 510 587 39,000  Level Gander Center
Tue 12:33:53 AM 59.6167 -62.3500 77° East 510 587 39,000  Level Montreal Center
Tue 12:34:53 AM 59.6500 -62.1000 75° East 510 587 39,000  Level Montreal Center
Tue 12:35:18 AM 59.6833 -62.0333 45° Northeast 510 587 39,000  Level Gander Center
Tue 12:36:18 AM 59.7167 -61.7500 77° East 510 587 39,000  Level Gander Center
Tue 12:37:06 AM 59.7500 -61.5500 72° East 520 598 39,000  Level Gander Center
Tue 12:38:06 AM 59.7667 -61.2500 84° East 510 587 39,000  Level Gander Center
Tue 12:39:06 AM 59.8167 -60.9833 69° East 510 587 39,000  Level Gander Center
Tue 12:39:53 AM 59.8500 -60.7167 76° East 510 587 39,000  Level Montreal Center
Tue 12:40:53 AM 59.8833 -60.4667 75° East 520 598 39,000  Level Montreal Center
Tue 12:41:18 AM 59.9167 -60.3833 51° Northeast 510 587 39,000  Level Gander Center
Tue 12:42:18 AM 59.9500 -60.1167 76° East 520 598 39,000  Level Gander Center
Tue 12:43:18 AM 59.9833 -59.8500 76° East 520 598 39,000  Level Gander Center
Tue 12:44:18 AM 59.9833 -59.5500 90° East 520 598 39,000  Level Gander Center
Tue 12:45:18 AM 60.0000 -59.2500 84° East 520 598 39,000  Level Gander Center
Tue 12:46:18 AM 60.0167 -58.9833 83° East 520 598 39,000  Level Gander Center
Tue 12:46:53 AM 60.0167 -58.7500 90° East 520 598 39,000  Level Montreal Center
Tue 12:47:53 AM 60.0167 -58.4500 90° East 520 598 39,000  Level Montreal Center
Tue 12:48:18 AM 60.0167 -58.3833 90° East 520 598 39,000  Level Gander Center
Tue 12:49:18 AM 60.0333 -58.1167 83° East 520 598 39,000  Level Gander Center
Tue 12:50:18 AM 60.0333 -57.8167 90° East 520 598 39,000  Level Gander Center
Tue 12:51:18 AM 60.0500 -57.5167 84° East 520 598 39,000  Level Gander Center
Tue 12:52:18 AM 60.0667 -57.2500 83° East 520 598 39,000  Level Gander Center
Tue 12:53:18 AM 60.0500 -56.9500 96° East 520 598 39,000  Level Gander Center
Tue 12:54:18 AM 60.0500 -56.6833 90° East 520 598 39,000  Level Gander Center
Tue 12:55:18 AM 60.0667 -56.3833 84° East 520 598 39,000  Level Gander Center
Tue 12:56:18 AM 60.0667 -56.0833 90° East 520 598 39,000  Level Gander Center
Tue 12:57:18 AM 60.0667 -55.7833 90° East 530 610 39,000  Level Gander Center
Tue 12:58:18 AM 60.0667 -55.5167 90° East 530 610 39,000  Level Gander Center
Tue 12:59:06 AM 60.0667 -55.2833 90° East 530 610 39,000  Level Gander Center
Tue 01:00:06 AM 60.0667 -54.9833 90° East 520 598 39,000  Level Gander Center
Tue 01:01:18 AM 60.0667 -54.6333 90° East 520 598 39,000  Level Gander Center
Tue 01:02:06 AM 60.0667 -54.4167 90° East 520 598 39,000  Level Gander Center
Tue 01:03:06 AM 60.0667 -54.1000 90° East 520 598 39,000  Level Gander Center
Tue 01:04:06 AM 60.0667 -53.8000 90° East 520 598 39,000  Level Gander Center
Tue 01:05:18 AM 60.0667 -53.4333 90° East 520 598 39,000  Level Gander Center
Tue 01:06:18 AM 60.0667 -53.1667 90° East 520 598 39,000  Level Gander Center
Tue 01:07:18 AM 60.0667 -52.8667 90° East 520 598 39,000  Level Gander Center
Tue 01:08:18 AM 60.0500 -52.5667 96° East 520 598 39,000  Level Gander Center
Tue 01:09:18 AM 60.0500 -52.3000 90° East 520 598 39,000  Level Gander Center
Tue 01:10:18 AM 60.0333 -52.0000 96° East 520 598 39,000  Level Gander Center
Tue 01:11:18 AM 60.0333 -51.7000 90° East 520 598 39,000  Level Gander Center
Tue 01:12:18 AM 60.0167 -51.4333 97° East 520 598 39,000  Level Gander Center
Tue 01:13:18 AM 60.0167 -51.1333 90° East 520 598 39,000  Level Gander Center
Tue 01:14:18 AM 60.0000 -50.8333 96° East 520 598 39,000  Level Gander Center
Tue 01:15:18 AM 60.0000 -50.5333 90° East 530 610 39,000  Level Gander Center
Tue 01:16:18 AM 59.9833 -50.2833 97° East 530 610 39,000  Level Gander Center
Tue 01:17:18 AM 59.9667 -49.9833 96° East 530 610 39,000  Level Gander Center
Tue 01:18:18 AM 59.9833 -49.7000 83° East 540 621 39,000  Level Gander Center
Tue 01:19:18 AM 59.9833 -49.4000 90° East 540 621 39,000  Level Gander Center
Tue 01:20:18 AM 60.0000 -49.1000 84° East 540 621 39,000  Level Gander Center
Tue 01:21:18 AM 60.0000 -48.8167 90° East 530 610 39,000  Level Gander Center
Tue 01:22:18 AM 60.0167 -48.5167 84° East 530 610 39,000  Level Gander Center
Tue 01:23:18 AM 60.0167 -48.2167 90° East 530 610 39,000  Level Gander Center
Tue 01:24:18 AM 60.0333 -47.9000 84° East 540 621 39,000  Level Gander Center
Tue 01:25:18 AM 60.0333 -47.6000 90° East 540 621 39,000  Level Gander Center
Tue 01:26:18 AM 60.0500 -47.3167 83° East 540 621 39,000  Level Gander Center
Tue 01:27:18 AM 60.0500 -47.0167 90° East 540 621 39,000  Level Gander Center
Tue 01:28:18 AM 60.0500 -46.7167 90° East 540 621 39,000  Level Gander Center
Tue 01:29:18 AM 60.0500 -46.4333 90° East 540 621 39,000  Level Gander Center
Tue 01:30:18 AM 60.0500 -46.1333 90° East 540 621 39,000  Level Gander Center
Tue 01:31:18 AM 60.0500 -45.8333 90° East 540 621 39,000  Level Gander Center
Tue 01:32:18 AM 60.0500 -45.5500 90° East 540 621 39,000  Level Gander Center
Tue 01:33:18 AM 60.0667 -45.2333 84° East 540 621 39,000  Level Gander Center
Tue 01:35:18 AM 60.0667 -44.6667 90° East 530 610 39,000  Level Gander Center
Tue 01:36:18 AM 60.0667 -44.3500 90° East 530 610 39,000  Level Gander Center
Tue 01:37:18 AM 60.0667 -44.0500 90° East 530 610 39,000  Level Gander Center
Tue 01:38:18 AM 60.0667 -43.7833 90° East 540 621 39,000  Level Gander Center
Tue 01:39:18 AM 60.0500 -43.4667 96° East 540 621 39,000  Level Gander Center
Tue 01:40:18 AM 60.0500 -43.2000 90° East 540 621 39,000  Level Gander Center
Tue 01:41:18 AM 60.0500 -42.9000 90° East 540 621 39,000  Level Gander Center
Tue 01:42:18 AM 60.0333 -42.6000 96° East 540 621 39,000  Level Gander Center
Tue 01:43:18 AM 60.0333 -42.2833 90° East 540 621 39,000  Level Gander Center
Tue 01:44:18 AM 60.0333 -41.9833 90° East 540 621 39,000  Level Gander Center
Tue 01:45:18 AM 60.0333 -41.7000 90° East 540 621 39,000  Level Gander Center
Tue 01:47:18 AM 60.0167 -41.1000 93° East 540 621 39,000  Level Gander Center
Tue 01:48:18 AM 60.0000 -40.8000 96° East 540 621 39,000  Level Gander Center
Tue 01:49:18 AM 59.9833 -40.5000 96° East 540 621 39,000  Level Gander Center
Tue 01:50:18 AM 59.9833 -40.2167 90° East 540 621 39,000  Level Gander Center
Tue 01:52:18 AM 59.9500 -39.6167 96° East 540 621 39,000  Level Gander Center
Tue 01:53:18 AM 59.9333 -39.3167 96° East 540 621 39,000  Level Gander Center
Tue 01:55:18 AM 59.8833 -38.7333 99° East 540 621 39,000  Level Gander Center
Tue 01:56:18 AM 59.8667 -38.4333 96° East 540 621 39,000  Level Gander Center
Tue 01:57:18 AM 59.8333 -38.1333 102° East 540 621 39,000  Level Gander Center
Tue 01:59:18 AM 59.8000 -37.5333 96° East 550 633 39,000  Level Gander Center
Tue 02:01:18 AM 59.7500 -36.9833 100° East 540 621 39,000  Level Gander Center
Tue 02:03:00 AM 59.7132 -36.5265 99° East  Level FlightAware Approximate
Tue 02:04:18 AM 59.6667 -36.1000 99° East 540 621 39,000  Level Gander Center
Tue 02:05:18 AM 59.6500 -35.8167 97° East 550 633 39,000  Level Gander Center
Tue 02:06:18 AM 59.6333 -35.5167 96° East 550 633 39,000  Level Gander Center
Tue 02:07:18 AM 59.5833 -35.2333 109° East 540 621 39,000  Level Gander Center
Tue 02:08:18 AM 59.5667 -34.9333 96° East 550 633 39,000  Level Gander Center
Tue 02:10:00 AM 59.5232 -34.4814 101° East  Level FlightAware Approximate
Tue 02:17:00 AM 59.3280 -32.6332 101° East  Level FlightAware Approximate
Tue 02:18:00 AM 59.2980 -32.3710 103° East  Level FlightAware Approximate
Tue 02:19:00 AM 59.2674 -32.1092 103° East  Level FlightAware Approximate
Tue 02:20:00 AM 59.2364 -31.8479 103° East  Level FlightAware Approximate
Tue 02:21:00 AM 59.2048 -31.5871 103° East  Level FlightAware Approximate
Tue 02:22:00 AM 59.1727 -31.3267 103° East  Level FlightAware Approximate
Tue 02:23:00 AM 59.1401 -31.0669 104° East  Level FlightAware Approximate
Tue 02:24:00 AM 59.1069 -30.8075 104° East  Level FlightAware Approximate
Tue 02:25:00 AM 59.0733 -30.5487 104° East  Level FlightAware Approximate
Tue 02:26:00 AM 59.0391 -30.2903 104° East  Level FlightAware Approximate
Tue 02:27:00 AM 59.0044 -30.0325 105° East  Level FlightAware Approximate
Tue 02:28:00 AM 58.9861 -29.7683 97° East  Level FlightAware Approximate
Tue 02:29:00 AM 58.9697 -29.5041 97° East  Level FlightAware Approximate
Tue 02:30:00 AM 58.9528 -29.2401 97° East  Level FlightAware Approximate
Tue 02:31:00 AM 58.9354 -28.9764 97° East  Level FlightAware Approximate
Tue 02:32:00 AM 58.9174 -28.7129 97° East  Level FlightAware Approximate
Tue 02:33:00 AM 58.8989 -28.4498 98° East  Level FlightAware Approximate
Tue 02:34:00 AM 58.8799 -28.1869 98° East  Level FlightAware Approximate
Tue 02:35:00 AM 58.8603 -27.9243 98° East  Level FlightAware Approximate
Tue 02:36:00 AM 58.8402 -27.6620 98° East  Level FlightAware Approximate
Tue 02:37:00 AM 58.8195 -27.4000 99° East  Level FlightAware Approximate
Tue 02:38:00 AM 58.7984 -27.1384 99° East  Level FlightAware Approximate
Tue 02:39:00 AM 58.7767 -26.8770 99° East  Level FlightAware Approximate
Tue 02:40:00 AM 58.7544 -26.6160 99° East  Level FlightAware Approximate
Tue 02:41:00 AM 58.7317 -26.3554 99° East  Level FlightAware Approximate
Tue 02:42:00 AM 58.7084 -26.0950 100° East  Level FlightAware Approximate
Tue 02:43:00 AM 58.6846 -25.8350 100° East  Level FlightAware Approximate
Tue 02:44:00 AM 58.6603 -25.5754 100° East  Level FlightAware Approximate
Tue 02:45:00 AM 58.6354 -25.3162 100° East  Level FlightAware Approximate
Tue 02:46:00 AM 58.6100 -25.0573 101° East  Level FlightAware Approximate
Tue 02:47:00 AM 58.5841 -24.7988 101° East  Level FlightAware Approximate
Tue 02:48:00 AM 58.5577 -24.5407 101° East  Level FlightAware Approximate
Tue 02:49:00 AM 58.5308 -24.2830 101° East  Level FlightAware Approximate
Tue 02:50:00 AM 58.5034 -24.0256 101° East  Level FlightAware Approximate
Tue 02:51:00 AM 58.4754 -23.7687 102° East  Level FlightAware Approximate
Tue 02:52:00 AM 58.4469 -23.5122 102° East  Level FlightAware Approximate
Tue 02:53:00 AM 58.4180 -23.2561 102° East  Level FlightAware Approximate
Tue 02:54:00 AM 58.3885 -23.0005 102° East  Level FlightAware Approximate
Tue 02:55:00 AM 58.3585 -22.7452 103° East  Level FlightAware Approximate
Tue 02:56:00 AM 58.3280 -22.4904 103° East  Level FlightAware Approximate
Tue 02:57:00 AM 58.2970 -22.2361 103° East  Level FlightAware Approximate
Tue 02:58:00 AM 58.2655 -21.9822 103° East  Level FlightAware Approximate
Tue 02:59:00 AM 58.2335 -21.7288 103° East  Level FlightAware Approximate
Tue 03:00:00 AM 58.2009 -21.4758 104° East  Level FlightAware Approximate
Tue 03:01:00 AM 58.1679 -21.2232 104° East  Level FlightAware Approximate
Tue 03:02:00 AM 58.1344 -20.9712 104° East  Level FlightAware Approximate
Tue 03:03:00 AM 58.1004 -20.7196 104° East  Level FlightAware Approximate
Tue 03:04:00 AM 58.0659 -20.4685 104° East  Level FlightAware Approximate
Tue 03:05:00 AM 58.0309 -20.2179 105° East  Level FlightAware Approximate
Tue 03:06:00 AM 57.9927 -19.9697 114° Southeast  Level FlightAware Approximate
Tue 03:07:00 AM 57.9357 -19.7344 114° Southeast  Level FlightAware Approximate
Tue 03:08:00 AM 57.8783 -19.5000 115° Southeast  Level FlightAware Approximate
Tue 03:09:00 AM 57.8205 -19.2663 115° Southeast  Level FlightAware Approximate
Tue 03:10:00 AM 57.7622 -19.0333 115° Southeast  Level FlightAware Approximate
Tue 03:11:00 AM 57.7035 -18.8011 115° Southeast  Level FlightAware Approximate
Tue 03:12:00 AM 57.6444 -18.5697 115° Southeast  Level FlightAware Approximate
Tue 03:13:00 AM 57.5849 -18.3389 116° Southeast  Level FlightAware Approximate
Tue 03:14:00 AM 57.5249 -18.1090 116° Southeast  Level FlightAware Approximate
Tue 03:15:00 AM 57.4646 -17.8798 116° Southeast  Level FlightAware Approximate
Tue 03:16:00 AM 57.4038 -17.6514 116° Southeast  Level FlightAware Approximate
Tue 03:17:00 AM 57.3426 -17.4237 116° Southeast  Level FlightAware Approximate
Tue 03:18:00 AM 57.2810 -17.1968 117° Southeast  Level FlightAware Approximate
Tue 03:19:00 AM 57.2190 -16.9707 117° Southeast  Level FlightAware Approximate
Tue 03:20:00 AM 57.1566 -16.7453 117° Southeast  Level FlightAware Approximate
Tue 03:21:00 AM 57.0938 -16.5207 117° Southeast  Level FlightAware Approximate
Tue 03:22:00 AM 57.0305 -16.2968 117° Southeast  Level FlightAware Approximate
Tue 03:23:00 AM 56.9669 -16.0737 118° Southeast  Level FlightAware Approximate
Tue 03:24:00 AM 56.9029 -15.8513 118° Southeast  Level FlightAware Approximate
Tue 03:25:00 AM 56.8385 -15.6298 118° Southeast  Level FlightAware Approximate
Tue 03:26:00 AM 56.7737 -15.4090 118° Southeast  Level FlightAware Approximate
Tue 03:27:00 AM 56.7085 -15.1889 118° Southeast  Level FlightAware Approximate
Tue 03:28:00 AM 56.6429 -14.9696 118° Southeast  Level FlightAware Approximate
Tue 03:29:00 AM 56.5770 -14.7511 119° Southeast  Level FlightAware Approximate
Tue 03:30:00 AM 56.5106 -14.5334 119° Southeast  Level FlightAware Approximate
Tue 03:31:00 AM 56.4439 -14.3164 119° Southeast  Level FlightAware Approximate
Tue 03:32:00 AM 56.3768 -14.1001 119° Southeast  Level FlightAware Approximate
Tue 03:33:00 AM 56.3094 -13.8847 119° Southeast  Level FlightAware Approximate
Tue 03:34:00 AM 56.2415 -13.6700 120° Southeast  Level FlightAware Approximate
Tue 03:35:00 AM 56.1733 -13.4560 120° Southeast  Level FlightAware Approximate
Tue 03:36:00 AM 56.1047 -13.2428 120° Southeast  Level FlightAware Approximate
Tue 03:37:00 AM 56.0358 -13.0304 120° Southeast  Level FlightAware Approximate
Tue 03:38:00 AM 55.9665 -12.8188 120° Southeast  Level FlightAware Approximate
Tue 03:39:00 AM 55.8968 -12.6079 120° Southeast  Level FlightAware Approximate
Tue 03:40:00 AM 55.8268 -12.3977 121° Southeast  Level FlightAware Approximate
Tue 03:41:00 AM 55.7564 -12.1883 121° Southeast  Level FlightAware Approximate
Tue 03:42:00 AM 55.6856 -11.9797 121° Southeast  Level FlightAware Approximate
Tue 03:43:00 AM 55.6146 -11.7718 121° Southeast  Level FlightAware Approximate
Tue 03:44:00 AM 55.5431 -11.5647 121° Southeast  Level FlightAware Approximate
Tue 03:45:00 AM 55.4713 -11.3583 121° Southeast  Level FlightAware Approximate
Tue 03:46:00 AM 55.3992 -11.1527 122° Southeast  Level FlightAware Approximate
Tue 03:47:00 AM 55.3267 -10.9478 122° Southeast  Level FlightAware Approximate
Tue 03:48:00 AM 55.2539 -10.7437 122° Southeast  Level FlightAware Approximate
Tue 03:49:00 AM 55.1807 -10.5403 122° Southeast  Level FlightAware Approximate
Tue 03:50:00 AM 55.1072 -10.3377 122° Southeast  Level FlightAware Approximate
Tue 03:51:00 AM 55.0334 -10.1358 122° Southeast  Level FlightAware Approximate
Tue 03:52:00 AM 54.9592 -9.9347 123° Southeast  Level FlightAware Approximate
Tue 03:53:00 AM 54.8847 -9.7344 123° Southeast  Level FlightAware Approximate
Tue 03:53:51 AM 54.1443 -8.9644 123° Southeast 494 568 39,000  Level FlightAware UK
Tue 03:54:09 AM 54.1164 -8.9122 132° Southeast 494 568 39,000  Level FlightAware UK
Tue 03:54:27 AM 54.0880 -8.8603 133° Southeast 496 571 39,000  Level FlightAware UK
Tue 03:54:45 AM 54.0597 -8.8084 133° Southeast 494 568 39,000  Level FlightAware UK
Tue 03:55:03 AM 54.0314 -8.7563 133° Southeast 496 571 39,000  Level FlightAware UK
Tue 03:55:21 AM 54.0029 -8.7043 133° Southeast 494 568 39,000  Level FlightAware UK
Tue 03:55:39 AM 53.9747 -8.6522 133° Southeast 496 571 39,000  Level FlightAware UK
Tue 03:55:57 AM 53.9463 -8.6003 133° Southeast 496 571 39,000  Level FlightAware UK
Tue 03:56:15 AM 53.9177 -8.5486 133° Southeast 498 573 39,000  Level FlightAware UK
Tue 03:56:33 AM 53.8892 -8.4971 133° Southeast 498 573 39,000  Level FlightAware UK
Tue 03:56:51 AM 53.8604 -8.4450 133° Southeast 496 571 39,000  Level FlightAware UK
Tue 03:57:09 AM 53.8320 -8.3936 133° Southeast 498 573 39,000  Level FlightAware UK
Tue 03:57:27 AM 53.8036 -8.3425 133° Southeast 496 571 39,000  Level FlightAware UK
Tue 03:57:45 AM 53.7752 -8.2918 133° Southeast 496 571 39,000  Level FlightAware UK
Tue 03:58:03 AM 53.7469 -8.2411 133° Southeast 496 571 39,000  Level FlightAware UK
Tue 03:58:21 AM 53.7184 -8.1905 133° Southeast 496 571 39,000  Level FlightAware UK
Tue 03:58:39 AM 53.6902 -8.1400 133° Southeast 494 568 39,000  Level FlightAware UK
Tue 03:58:57 AM 53.6619 -8.0897 133° Southeast 492 566 39,000  Level FlightAware UK
Tue 03:59:15 AM 53.6338 -8.0394 133° Southeast 492 566 39,000  Level FlightAware UK
Tue 03:59:33 AM 53.6056 -7.9892 133° Southeast 492 566 39,000  Level FlightAware UK
Tue 03:59:51 AM 53.5774 -7.9392 134° Southeast 494 568 39,000  Level FlightAware UK
Tue 04:00:09 AM 53.5492 -7.8892 133° Southeast 494 568 39,000  Level FlightAware UK
Tue 04:00:27 AM 53.5210 -7.8390 133° Southeast 494 568 39,000  Level FlightAware UK
Tue 04:00:45 AM 53.4926 -7.7890 134° Southeast 490 564 39,000  Level FlightAware UK
Tue 04:01:09 AM 53.4546 -7.7225 134° Southeast 494 568 39,000  Level FlightAware UK
Tue 04:01:27 AM 53.4261 -7.6725 134° Southeast 494 568 39,000  Level FlightAware UK
Tue 04:01:45 AM 53.3974 -7.6224 134° Southeast 496 571 39,000  Level FlightAware UK
Tue 04:02:03 AM 53.3687 -7.5723 134° Southeast 496 571 39,000  Level FlightAware UK
Tue 04:02:21 AM 53.3399 -7.5221 134° Southeast 498 573 39,000  Level FlightAware UK
Tue 04:02:39 AM 53.3111 -7.4718 134° Southeast 498 573 39,000  Level FlightAware UK
Tue 04:02:57 AM 53.2824 -7.4216 134° Southeast 496 571 39,000  Level FlightAware UK
Tue 04:03:15 AM 53.2537 -7.3718 134° Southeast 496 571 39,000  Level FlightAware UK
Tue 04:03:33 AM 53.2249 -7.3221 134° Southeast 496 571 39,000  Level FlightAware UK
Tue 04:03:51 AM 53.1961 -7.2725 134° Southeast 496 571 39,000  Level FlightAware UK
Tue 04:04:09 AM 53.1674 -7.2231 134° Southeast 494 568 39,000  Level FlightAware UK
Tue 04:04:28 AM 53.1384 -7.1733 134° Southeast 492 566 39,000  Level FlightAware UK
Tue 04:04:46 AM 53.1097 -7.1240 134° Southeast 494 568 39,000  Level FlightAware UK
Tue 04:05:04 AM 53.0810 -7.0747 134° Southeast 498 573 39,000  Level FlightAware UK
Tue 04:05:22 AM 53.0522 -7.0253 134° Southeast 498 573 39,000  Level FlightAware UK
Tue 04:05:40 AM 53.0233 -6.9762 134° Southeast 500 575 39,000  Level FlightAware UK
Tue 04:05:58 AM 52.9944 -6.9271 134° Southeast 498 573 39,000  Level FlightAware UK
Tue 04:06:16 AM 52.9656 -6.8780 134° Southeast 498 573 39,000  Level FlightAware UK
Tue 04:06:34 AM 52.9368 -6.8292 134° Southeast 496 571 39,000  Level FlightAware UK
Tue 04:06:52 AM 52.9081 -6.7806 134° Southeast 496 571 39,000  Level FlightAware UK
Tue 04:07:10 AM 52.8795 -6.7322 134° Southeast 496 571 39,000  Level FlightAware UK
Tue 04:07:28 AM 52.8527 -6.6820 131° Southeast 494 568 39,000  Level FlightAware UK
Tue 04:07:46 AM 52.8272 -6.6294 129° Southeast 494 568 39,000  Level FlightAware UK
Tue 04:08:04 AM 52.8018 -6.5766 128° Southeast 496 571 39,000  Level FlightAware UK
Tue 04:08:22 AM 52.7759 -6.5242 129° Southeast 496 571 39,000  Level FlightAware UK
Tue 04:08:40 AM 52.7497 -6.4725 130° Southeast 494 568 39,000  Level FlightAware UK
Tue 04:08:58 AM 52.7233 -6.4213 130° Southeast 494 568 39,000  Level FlightAware UK
Tue 04:09:16 AM 52.6967 -6.3700 131° Southeast 496 571 39,000  Level FlightAware UK
Tue 04:09:34 AM 52.6702 -6.3187 130° Southeast 496 571 39,000  Level FlightAware UK
Tue 04:09:52 AM 52.6438 -6.2675 130° Southeast 494 568 39,000  Level FlightAware UK
Tue 04:10:10 AM 52.6173 -6.2163 130° Southeast 492 566 39,000  Level FlightAware UK
Tue 04:10:28 AM 52.5910 -6.1651 130° Southeast 496 571 39,000  Level FlightAware UK
Tue 04:10:46 AM 52.5644 -6.1140 131° Southeast 498 573 39,000  Level FlightAware UK
Tue 04:11:04 AM 52.5379 -6.0631 131° Southeast 498 573 39,000  Level FlightAware UK
Tue 04:11:22 AM 52.5113 -6.0122 131° Southeast 498 573 39,000  Level FlightAware UK
Tue 04:11:40 AM 52.4844 -5.9609 131° Southeast 496 571 39,000  Level FlightAware UK
Tue 04:11:58 AM 52.4580 -5.9101 131° Southeast 496 571 39,000  Level FlightAware UK
Tue 04:12:16 AM 52.4315 -5.8595 131° Southeast 494 568 39,000  Level FlightAware UK
Tue 04:12:40 AM 52.3962 -5.7923 131° Southeast 496 571 39,000  Level FlightAware UK
Tue 04:12:58 AM 52.3698 -5.7420 131° Southeast 494 568 39,000  Level FlightAware UK
Tue 04:13:16 AM 52.3433 -5.6919 131° Southeast 496 571 39,000  Level FlightAware UK
Tue 04:13:34 AM 52.3168 -5.6418 131° Southeast 492 566 39,000  Level FlightAware UK
Tue 04:13:52 AM 52.2903 -5.5918 131° Southeast 494 568 39,000  Level FlightAware UK
Tue 04:14:10 AM 52.2638 -5.5418 131° Southeast 496 571 39,000  Level FlightAware UK
Tue 04:14:28 AM 52.2372 -5.4919 131° Southeast 498 573 39,000  Level FlightAware UK
Tue 04:14:58 AM 52.1929 -5.4088 131° Southeast 498 573 39,000  Level FlightAware UK
Tue 04:15:16 AM 52.1663 -5.3591 131° Southeast 496 571 39,000  Level FlightAware UK
Tue 04:15:34 AM 52.1448 -5.3042 123° Southeast 488 562 39,000  Level FlightAware UK
Tue 04:15:52 AM 52.1308 -5.2425 110° East 490 564 39,000  Level FlightAware UK
Tue 04:16:10 AM 52.1207 -5.1784 104° East 494 568 39,000  Level FlightAware UK
Tue 04:16:28 AM 52.1094 -5.1145 106° East 496 571 39,000  Level FlightAware UK
Tue 04:16:46 AM 52.0976 -5.0509 107° East 496 571 39,000  Level FlightAware UK
Tue 04:17:04 AM 52.0857 -4.9873 107° East 496 571 39,000  Level FlightAware UK
Tue 04:17:22 AM 52.0738 -4.9232 107° East 498 573 39,000  Level FlightAware UK
Tue 04:17:40 AM 52.0623 -4.8604 107° East 498 573 39,000  Level FlightAware UK
Tue 04:17:58 AM 52.0506 -4.7970 107° East 494 568 39,000  Level FlightAware UK
Tue 04:18:16 AM 52.0387 -4.7333 107° East 494 568 39,000  Level FlightAware UK
Tue 04:18:34 AM 52.0269 -4.6703 107° East 494 568 39,000  Level FlightAware UK
Tue 04:18:52 AM 52.0152 -4.6073 107° East 496 571 39,000  Level FlightAware UK
Tue 04:19:10 AM 52.0034 -4.5443 107° East 496 571 39,000  Level FlightAware UK
Tue 04:19:28 AM 51.9916 -4.4813 107° East 496 571 39,000  Level FlightAware UK
Tue 04:19:46 AM 51.9797 -4.4183 107° East 494 568 39,000  Level FlightAware UK
Tue 04:20:04 AM 51.9679 -4.3555 107° East 494 568 39,000  Level FlightAware UK
Tue 04:20:22 AM 51.9560 -4.2927 107° East 494 568 39,000  Level FlightAware UK
Tue 04:20:40 AM 51.9439 -4.2294 107° East 496 571 39,000  Level FlightAware UK
Tue 04:20:58 AM 51.9319 -4.1667 107° East 498 573 39,000  Level FlightAware UK
Tue 04:21:16 AM 51.9199 -4.1039 107° East 500 575 39,000  Level FlightAware UK
Tue 04:21:34 AM 51.9078 -4.0407 107° East 500 575 39,000  Level FlightAware UK
Tue 04:21:58 AM 51.8914 -3.9560 107° East 500 575 39,000  Level FlightAware UK
Tue 04:22:16 AM 51.8789 -3.8916 107° East 500 575 39,000  Level FlightAware UK
Tue 04:22:40 AM 51.8627 -3.8075 107° East 502 578 39,000  Level FlightAware UK
Tue 04:22:58 AM 51.8501 -3.7433 107° East 500 575 39,000  Level FlightAware UK
Tue 04:23:16 AM 51.8376 -3.6798 108° East 502 578 39,000  Level FlightAware UK
Tue 04:23:46 AM 51.8168 -3.5738 108° East 506 582 39,000  Level FlightAware UK
Tue 04:24:16 AM 51.7959 -3.4679 108° East 502 578 39,000  Level FlightAware UK
Tue 04:24:40 AM 51.7790 -3.3834 108° East 502 578 39,000  Level FlightAware UK
Tue 04:24:59 AM 51.7662 -3.3194 108° East 502 578 39,000  Level FlightAware UK
Tue 04:25:17 AM 51.7537 -3.2562 108° East 502 578 39,000  Level FlightAware UK
Tue 04:25:41 AM 51.7368 -3.1722 108° East 500 575 39,000  Level FlightAware UK
Tue 04:25:59 AM 51.7241 -3.1094 108° East 500 575 39,000  Level FlightAware UK
Tue 04:26:17 AM 51.7112 -3.0458 108° East 502 578 39,000  Level FlightAware UK
Tue 04:26:35 AM 51.6984 -2.9830 108° East 502 578 39,000  Level FlightAware UK
Tue 04:26:53 AM 51.6857 -2.9201 108° East 504 580 39,000  Level FlightAware UK
Tue 04:27:11 AM 51.6729 -2.8572 108° East 504 580 39,000 -286 Level FlightAware UK
Tue 04:27:35 AM 51.6554 -2.7735 109° East 504 580 38,800 -571 Descending FlightAware UK
Tue 04:27:53 AM 51.6369 -2.7143 117° Southeast 502 578 38,600 -833 Descending FlightAware UK
Tue 04:28:11 AM 51.6193 -2.6557 116° Southeast 502 578 38,300 -667 Descending FlightAware UK
Tue 04:28:47 AM 51.5850 -2.5388 115° Southeast 502 578 38,000 -444 Descending FlightAware UK
Tue 04:29:05 AM 51.5681 -2.4803 115° Southeast 502 578 37,900  Descending FlightAware UK
Tue 04:29:41 AM 51.5337 -2.3627 115° Southeast 502 578 38,000 111 Climbing FlightAware UK
Tue 04:29:59 AM 51.5164 -2.3044 115° Southeast 500 575 38,000  Level FlightAware UK
Tue 04:30:17 AM 51.4991 -2.2464 116° Southeast 500 575 38,000  Level FlightAware UK
Tue 04:30:35 AM 51.4819 -2.1885 116° Southeast 500 575 38,000  Level FlightAware UK
Tue 04:30:59 AM 51.4589 -2.1115 116° Southeast 500 575 38,000  Level FlightAware UK
Tue 04:31:59 AM 51.4010 -1.9182 116° Southeast 500 575 38,000  Level FlightAware UK
Tue 04:32:17 AM 51.3836 -1.8605 116° Southeast 500 575 38,000  Level FlightAware UK
Tue 04:32:35 AM 51.3661 -1.8027 116° Southeast 502 578 38,000  Level FlightAware UK
Tue 04:33:17 AM 51.3252 -1.6679 116° Southeast 504 580 38,000  Level FlightAware UK
Tue 04:33:36 AM 51.3075 -1.6096 116° Southeast 502 578 38,000 -333 Level FlightAware UK
Tue 04:33:53 AM 51.2901 -1.5528 116° Southeast 500 575 37,800 -875 Descending FlightAware UK
Tue 04:34:24 AM 51.2606 -1.4556 116° Southeast 502 578 37,300 -982 Descending FlightAware UK
Tue 04:34:48 AM 51.2371 -1.3796 116° Southeast 502 578 36,900 -1,000 Descending FlightAware UK
Tue 04:35:06 AM 51.2191 -1.3214 116° Southeast 504 580 36,600 -1,000 Descending FlightAware UK
Tue 04:35:24 AM 51.2015 -1.2646 116° Southeast 502 578 36,300 -636 Descending FlightAware UK
Tue 04:36:12 AM 51.1542 -1.1120 116° Southeast 502 578 35,900 -250 Descending FlightAware UK
Tue 04:36:36 AM 51.1305 -1.0362 116° Southeast 500 575 36,000 143 Climbing FlightAware UK
Tue 04:36:54 AM 51.1128 -0.9793 116° Southeast 502 578 36,000  Level FlightAware UK
Tue 04:37:12 AM 51.0947 -0.9219 117° Southeast 498 573 36,000  Level FlightAware UK
Tue 04:37:54 AM 51.0531 -0.7892 117° Southeast 500 575 36,000  Level FlightAware UK
Tue 04:38:18 AM 51.0231 -0.7201 125° Southeast 500 575 36,000  Level FlightAware UK
Tue 04:38:48 AM 50.9791 -0.6419 132° Southeast 500 575 36,000 -600 Level FlightAware UK
Tue 04:39:18 AM 50.9351 -0.5645 132° Southeast 500 575 35,400 -1,375 Descending FlightAware UK
Tue 04:39:36 AM 50.9083 -0.5167 132° Southeast 500 575 34,900 -1,500 Descending FlightAware UK
Tue 04:40:18 AM 50.8467 -0.4052 131° Southeast 502 578 33,900 -1,500 Descending FlightAware UK
Tue 04:40:36 AM 50.8217 -0.3587 130° Southeast 504 580 33,400 -1,469 Descending FlightAware UK
Tue 04:41:07 AM 50.7801 -0.2818 130° Southeast 504 580 32,700 -1,469 Descending FlightAware UK
Tue 04:41:25 AM 50.7556 -0.2380 132° Southeast 494 568 32,200 -1,500 Descending FlightAware UK
Tue 04:41:43 AM 50.7313 -0.1955 132° Southeast 490 564 31,800 -1,429 Descending FlightAware UK
Tue 04:42:07 AM 50.6994 -0.1410 133° Southeast 486 559 31,200 -1,429 Descending FlightAware UK
Tue 04:42:25 AM 50.6757 -0.1000 132° Southeast 482 555 30,800 -1,083 Descending FlightAware UK
Tue 04:43:19 AM 50.6082 0.0337 128° Southeast 488 562 29,900 -1,480 Descending FlightAware UK
Tue 04:44:55 AM 50.5093 0.2974 120° Southeast 476 548 27,100 -1,684 Descending FlightAware UK
Tue 04:45:13 AM 50.4908 0.3460 121° Southeast 474 545 26,700 -1,250 Descending FlightAware UK
Tue 04:45:43 AM 50.4590 0.4247 122° Southeast 470 541 26,100 -1,000 Descending FlightAware UK
Tue 04:46:01 AM 50.4331 0.4632 136° Southeast 472 543 25,900 -1,000 Descending FlightAware UK
Tue 04:46:19 AM 50.4057 0.4997 140° Southeast 474 545 25,500 -1,125 Descending FlightAware UK
Tue 04:46:49 AM 50.3611 0.5618 138° Southeast 470 541 25,000 -625 Descending FlightAware UK
Tue 04:47:07 AM 50.3348 0.6001 137° Southeast 468 539 25,000  Level FlightAware UK
Tue 04:47:55 AM 50.2645 0.6991 138° Southeast 468 539 25,000  Level FlightAware UK
Tue 04:48:13 AM 50.2380 0.7361 138° Southeast 468 539 25,000 -500 Level FlightAware UK
Tue 04:48:43 AM 50.1941 0.7977 138° Southeast 464 534 24,600 -875 Descending FlightAware UK
Tue 04:49:01 AM 50.1675 0.8346 138° Southeast 462 532 24,300 -1,000 Descending FlightAware UK
Tue 04:49:19 AM 50.1413 0.8713 138° Southeast 464 534 24,000 -429 Descending FlightAware UK
Tue 04:49:43 AM 50.1062 0.9201 138° Southeast 462 532 24,000  Level FlightAware UK
Tue 04:50:08 AM 50.0707 0.9692 138° Southeast 462 532 24,000 -419 Level FlightAware UK
Tue 04:50:26 AM 50.0443 1.0057 138° Southeast 460 529 23,700 -1,024 Descending FlightAware UK
Tue 04:50:49 AM 50.0094 1.0541 138° Southeast 458 527 23,300 -1,000 Descending FlightAware UK
Tue 04:51:08 AM 49.9828 1.0912 138° Southeast 458 527 23,000 -973 Descending FlightAware UK
Tue 04:51:26 AM 49.9565 1.1277 138° Southeast 454 522 22,700 -1,000 Descending FlightAware UK
Tue 04:52:20 AM 49.8636 1.1845 158° South 446 513 21,800 -1,000 Descending FlightAware UK
Tue 04:52:44 AM 49.8215 1.2067 161° South 444 511 21,400 -1,000 Descending FlightAware UK
Tue 04:53:08 AM 49.7816 1.2371 154° Southeast 444 511 21,000 -1,000 Descending FlightAware UK
Tue 04:53:26 AM 49.7517 1.2592 154° Southeast 442 509 20,700 -1,000 Descending FlightAware UK
Tue 04:53:50 AM 49.7114 1.2865 156° South 440 506 20,300 -1,429 Descending FlightAware UK
Tue 04:54:08 AM 49.6818 1.3071 156° South 434 499 19,700 -1,667 Descending FlightAware UK
Tue 04:54:26 AM 49.6523 1.3275 156° South 434 499 19,300 -1,667 Descending FlightAware UK
Tue 04:55:20 AM 49.5646 1.3882 156° South 424 488 17,700 -1,833 Descending FlightAware UK
Tue 04:55:38 AM 49.5359 1.4081 156° South 420 483 17,100 -1,750 Descending FlightAware UK
Tue 04:56:08 AM 49.4888 1.4409 156° South 416 479 16,300 -1,688 Descending FlightAware UK
Tue 04:57:14 AM 49.3875 1.5103 156° South 400 460 14,400 -1,500 Descending FlightAware UK
Tue 04:57:32 AM 49.3606 1.5289 156° South 388 447 14,200 -714 Descending FlightAware UK
Tue 04:57:56 AM 49.3267 1.5520 156° South 376 433 13,900 -625 Descending FlightAware UK
Tue 04:58:20 AM 49.3018 1.5893 136° Southeast 358 412 13,700 -625 Descending FlightAware UK
Tue 04:58:44 AM 49.2968 1.6431 98° East 342 394 13,400 -1,000 Descending FlightAware UK
Tue 04:59:08 AM 49.2948 1.6976 93° East 336 387 12,900 -1,444 Descending FlightAware UK
Tue 04:59:38 AM 49.2920 1.7648 94° East 334 384 12,100 -1,500 Descending FlightAware UK
Tue 04:59:56 AM 49.2898 1.8044 95° East 332 382 11,700 -1,429 Descending FlightAware UK
Tue 05:00:20 AM 49.2875 1.8571 94° East 328 377 11,100 -1,000 Descending FlightAware UK
Tue 05:00:38 AM 49.2855 1.8956 94° East 328 377 11,000 -45 Descending FlightAware UK
Tue 05:02:32 AM 49.2857 2.1631 90° East 328 377 11,000  Level FlightAware UK
Tue 05:03:08 AM 49.2677 2.2144 118° Southeast 328 377 11,000  Level FlightAware UK
Tue 05:05:00 AM 49.0750 2.4125 135° Southeast  Level FlightAware Approximate
Tue 05:12:00 AM 49.0000 2.5333 132° Southeast  Level FlightAware Approximate
Tue 05:13:00 AM 49.0128 2.5500 132° Southeast  Level Estimated
Tue 05:14:00 AM 49.0128 2.5500 132° Southeast  Level Estimated
Tue 05:15:00 AM 49.0128 2.5500 132° Southeast  Level Estimated
Tue 05:16:00 AM 49.0128 2.5500 132° Southeast  Level Estimated
Tue 05:17:00 AM 49.0128 2.5500 132° Southeast  Level Estimated
Tue 05:18:00 AM 49.0128 2.5500 132° Southeast  Level Estimated
Tue 05:19:00 AM 49.0128 2.5500 132° Southeast  Level Estimated
Tue 05:20:00 AM 49.0128 2.5500 132° Southeast  Level Estimated
Tue 05:21:00 AM 49.0128 2.5500 132° Southeast  Level Estimated
Tue 05:22:00 AM 49.0128 2.5500 132° Southeast  Level Estimated
Tue 05:23:00 AM 49.0128 2.5500 132° Southeast  Level Estimated
Tue 05:24:00 AM 49.0128 2.5500 132° Southeast  Level Estimated
Tue 05:25:00 AM 49.0128 2.5500 132° Southeast  Level Estimated
Tue 05:26:00 AM 49.0128 2.5500 132° Southeast  Level Estimated
Tue 05:27:00 AM 49.0128 2.5500 132° Southeast  Level Estimated
Tue 05:28:00 AM 49.0128 2.5500 132° Southeast  Level Estimated
Tue 05:29:00 AM 49.0128 2.5500 132° Southeast  Level Estimated
Tue 05:30:00 AM 49.0128 2.5500 132° Southeast  Level Estimated
Tue 05:31:00 AM 49.0128 2.5500 132° Southeast  Level Estimated
Tue 05:32:00 AM 49.0128 2.5500 132° Southeast  Level Estimated
Tue 05:33:00 AM 49.0128 2.5500 132° Southeast  Level Estimated
Tue 05:34:00 AM 49.0128 2.5500 132° Southeast  Level Estimated
Tue 05:35:00 AM 49.0128 2.5500 132° Southeast  Level Estimated
Tue 05:36:00 AM 49.0128 2.5500 132° Southeast  Level Estimated
Tue 05:37:00 AM 49.0128 2.5500 132° Southeast  Level Estimated
Tue 05:38:00 AM 49.0128 2.5500 132° Southeast  Level Estimated
Tue 05:39:00 AM 49.0128 2.5500 132° Southeast  Level Estimated

Login

Don't have an account? Register now (free) for customized features, flight alerts, and more!